Airfield :
LOGIN :

Register | Disclaimer

   EN    FR    IT 

 










Legend :    VFR   Marginal VFR   IFR   Intensive IFR   Very Intensive IFR
Visi :
Ceiling :
>= 8 km
>= 3000ft
5 to 8 km
1000 to 3000 ft
1500m to 5 km
500 to 1000 ft
800 to 1500m
200 to 500 ft
< 800m
< 200 ft
Symbols :   Thunderstorms  Fog  Heavy snow  Heavy precipitations  Wind > 20 kt
SIGMETs :     Misc.  Thunderstorms  Icing  Turbulence  Mountain Waves  Volcanic Ashes







- Airport Elevation : 11 ft
- IATA code : MJV


LELC - Murcia San Javier

CURRENT METAR :
  • 130530Z AUTO 25005KT 8000 NSC 10/08 Q1013

EXPIRED METARs :
  • 130500Z AUTO 26006KT 8000 NSC 10/08 Q1013
  • 130430Z AUTO 24005KT CAVOK 10/07 Q1013
  • 130400Z AUTO 24006KT CAVOK 10/08 Q1014
  • 130330Z AUTO 24006KT CAVOK 10/08 Q1014
  • 130300Z AUTO 26005KT CAVOK 10/08 Q1014

TAF TAF LELC
Valid from the 13 at 06:00 until the 14 at 06:00 UTC


130500Z 1306/1406 24009KT 9999 SCT020 TX16/1312Z TN10/1306Z
BECMG 1310/1312 30015KT
PROB40
TEMPO 1306/1315 4000 RA BKN014
PROB40
TEMPO 1318/1322 30020G35KT
No reported NOTAMs for that airfield.



MET'MAP, your aeronautical weather chart ! - Copyright ORBIFLY December 2007 - Disclaimer

ORBIFLY MET'MAP TEAM :

Programming & Development : Alexandra Zaïnal
Concept & Development : Baudouin d'Aumeries
Co-Development & Prog : Marc-Olivier Méhu
Technical & hardware support : Manuel Goepfert

Contact : metmap@orbifly.com




SOURCES & CREDITS :

   NOAA